Time;durP1;ratioP1;P1;durP2;ratioP2;P2;SDS_P1;SDS_P2;PMS_P1;PMS_P2;Temp;Humidity;BMP_temperature;BMP_pressure;BME280_temperature;BME280_humidity;BME280_pressure;Samples;Min_cycle;Max_cycle;Signal;HPM_P1;HPM_P2
2021/07/16 00:03:34;;;;;;;5.72;2.00;;;16.90;99.90;;;;;;20448592;28;22078;-50
2021/07/16 00:13:36;;;;;;;5.10;2.90;;;17.00;99.90;;;;;;20444648;28;20443;-50
2021/07/16 00:23:38;;;;;;;3.67;1.42;;;16.90;99.90;;;;;;20449156;28;21675;-50
2021/07/16 00:33:40;;;;;;;12.65;2.25;;;16.80;99.90;;;;;;20445993;28;20456;-51
2021/07/16 00:43:41;;;;;;;7.40;1.75;;;17.00;99.90;;;;;;20442651;28;20373;-51
2021/07/16 00:53:42;;;;;;;5.22;1.10;;;16.80;99.90;;;;;;20448696;28;20055;-50
2021/07/16 01:03:43;;;;;;;2.88;1.27;;;16.80;99.90;;;;;;20443148;28;20058;-50
2021/07/16 01:13:45;;;;;;;6.35;1.77;;;16.70;99.90;;;;;;20442628;28;20093;-50
2021/07/16 01:23:46;;;;;;;4.97;1.52;;;16.60;99.90;;;;;;20445551;28;20042;-50
2021/07/16 01:33:48;;;;;;;5.72;1.42;;;16.60;99.90;;;;;;20444606;28;20098;-50
2021/07/16 01:43:49;;;;;;;9.95;3.50;;;16.60;99.90;;;;;;20455085;28;20047;-50
2021/07/16 01:53:50;;;;;;;4.47;1.50;;;16.50;99.90;;;;;;20459841;28;20051;-50
2021/07/16 02:03:52;;;;;;;5.57;1.55;;;16.40;99.90;;;;;;20454113;28;20498;-50
2021/07/16 02:13:53;;;;;;;6.63;1.58;;;16.30;99.90;;;;;;20459414;28;20131;-50
2021/07/16 02:23:55;;;;;;;7.93;1.58;;;16.30;99.90;;;;;;20458279;28;20047;-50
2021/07/16 02:33:56;;;;;;;4.13;1.48;;;16.30;99.90;;;;;;20454545;28;20039;-50
2021/07/16 02:43:57;;;;;;;3.60;1.30;;;16.30;99.90;;;;;;20449127;28;20094;-50
2021/07/16 02:53:58;;;;;;;3.97;1.80;;;16.30;99.90;;;;;;20454408;28;20665;-50
2021/07/16 03:03:59;;;;;;;5.35;1.60;;;16.20;99.90;;;;;;20449646;28;20062;-50
2021/07/16 03:14:00;;;;;;;6.32;1.45;;;16.10;99.90;;;;;;20447485;28;20455;-50
2021/07/16 03:24:02;;;;;;;8.52;1.27;;;16.20;99.90;;;;;;20452106;28;20043;-50
2021/07/16 03:34:04;;;;;;;2.92;1.75;;;16.10;99.90;;;;;;20448029;28;20031;-50
2021/07/16 03:44:06;;;;;;;4.43;1.23;;;16.10;99.90;;;;;;20446801;28;20058;-50
2021/07/16 03:54:07;;;;;;;6.38;1.98;;;16.20;99.90;;;;;;20450131;28;20561;-50
2021/07/16 04:04:08;;;;;;;7.18;1.50;;;16.20;99.90;;;;;;20443988;28;20055;-50
2021/07/16 04:14:09;;;;;;;2.38;1.30;;;16.00;99.90;;;;;;20446032;28;20117;-50
2021/07/16 04:24:11;;;;;;;6.88;1.52;;;16.00;99.90;;;;;;20450974;28;20039;-50
2021/07/16 04:34:12;;;;;;;6.88;1.83;;;16.10;99.90;;;;;;20441358;28;20440;-51
2021/07/16 04:44:13;;;;;;;3.08;1.40;;;16.00;99.90;;;;;;20440406;28;20043;-50
2021/07/16 04:54:16;;;;;;;4.57;0.98;;;16.10;99.90;;;;;;20446110;28;20093;-50
2021/07/16 05:04:17;;;;;;;6.00;1.17;;;16.00;99.90;;;;;;20431794;28;20062;-50
2021/07/16 05:14:19;;;;;;;3.58;1.20;;;16.20;99.90;;;;;;20456986;28;20517;-50
2021/07/16 05:24:21;;;;;;;4.80;1.10;;;16.20;99.90;;;;;;20469306;28;20087;-50
2021/07/16 05:34:22;;;;;;;6.53;1.65;;;16.20;99.90;;;;;;20460240;28;20047;-50
2021/07/16 05:44:23;;;;;;;3.53;0.95;;;16.20;99.90;;;;;;20458450;28;20042;-50
2021/07/16 05:54:24;;;;;;;6.60;1.70;;;16.30;99.90;;;;;;20459476;28;20102;-50
2021/07/16 06:04:25;;;;;;;3.53;1.08;;;16.40;99.90;;;;;;20454730;28;20387;-50
2021/07/16 06:14:29;;;;;;;5.25;2.22;;;16.50;99.90;;;;;;20468301;28;20101;-50
2021/07/16 06:24:31;;;;;;;6.97;1.80;;;16.40;99.90;;;;;;20471470;28;20039;-50
2021/07/16 06:34:32;;;;;;;7.35;2.30;;;16.60;99.90;;;;;;20479570;28;20043;-50
2021/07/16 06:44:33;;;;;;;3.92;1.65;;;16.50;99.90;;;;;;20466111;28;20047;-50
2021/07/16 06:54:34;;;;;;;6.20;1.38;;;16.50;99.90;;;;;;20465929;28;20070;-49
2021/07/16 07:04:35;;;;;;;10.25;1.70;;;16.60;99.90;;;;;;20468883;28;20091;-50
2021/07/16 07:14:37;;;;;;;4.68;1.48;;;16.80;99.90;;;;;;20466431;28;20095;-50
2021/07/16 07:24:38;;;;;;;7.65;2.28;;;16.70;99.90;;;;;;20467395;28;21998;-50
2021/07/16 07:34:40;;;;;;;5.63;2.38;;;16.70;99.90;;;;;;20454166;28;20066;-50
2021/07/16 07:44:42;;;;;;;6.57;1.27;;;16.50;99.90;;;;;;20461584;28;20066;-50
2021/07/16 07:54:43;;;;;;;3.88;1.40;;;16.70;99.90;;;;;;20461582;28;20391;-50
2021/07/16 08:04:44;;;;;;;6.80;2.33;;;16.80;99.90;;;;;;20462604;28;20133;-50
2021/07/16 08:14:46;;;;;;;3.42;1.70;;;16.90;99.90;;;;;;20458870;28;20039;-49
2021/07/16 08:24:48;;;;;;;6.20;1.58;;;17.00;99.90;;;;;;20459867;28;20043;-50
2021/07/16 08:34:49;;;;;;;4.70;1.35;;;17.20;99.90;;;;;;20457019;28;20039;-50
2021/07/16 08:44:52;;;;;;;7.95;1.50;;;17.40;99.90;;;;;;20461786;28;20087;-50
2021/07/16 08:54:55;;;;;;;2.70;1.27;;;17.60;99.90;;;;;;20461446;28;20047;-50
2021/07/16 09:04:58;;;;;;;3.30;1.08;;;17.90;99.90;;;;;;20455626;28;20051;-50
2021/07/16 09:14:59;;;;;;;11.35;1.88;;;18.30;99.90;;;;;;20460308;28;21575;-50
2021/07/16 09:25:05;;;;;;;6.88;1.33;;;18.60;99.90;;;;;;20454964;28;20209;-50
2021/07/16 09:35:07;;;;;;;5.10;1.52;;;18.80;99.90;;;;;;20456782;28;20058;-50
2021/07/16 09:45:13;;;;;;;6.93;2.15;;;18.90;99.90;;;;;;20455912;28;20035;-50
2021/07/16 09:55:18;;;;;;;4.57;1.10;;;19.30;99.90;;;;;;20460492;28;20051;-50
2021/07/16 10:05:20;;;;;;;6.32;1.85;;;19.30;99.90;;;;;;20475875;28;20051;-50
2021/07/16 10:15:23;;;;;;;3.90;1.35;;;19.40;99.90;;;;;;20475581;28;20126;-50
2021/07/16 10:25:26;;;;;;;4.20;1.10;;;19.50;99.90;;;;;;20462209;28;20039;-50
2021/07/16 10:35:37;;;;;;;6.65;2.13;;;19.80;99.90;;;;;;20470447;28;20065;-50
2021/07/16 10:45:40;;;;;;;6.25;1.60;;;20.70;99.90;;;;;;20470337;28;20034;-50
2021/07/16 10:55:41;;;;;;;6.80;1.90;;;20.40;99.90;;;;;;20466091;28;20047;-50
2021/07/16 11:05:44;;;;;;;4.95;1.60;;;20.60;99.90;;;;;;20466269;28;20039;-50
2021/07/16 11:15:45;;;;;;;11.98;1.80;;;20.80;99.90;;;;;;20460791;28;20053;-50
2021/07/16 11:25:47;;;;;;;14.18;2.45;;;21.20;99.90;;;;;;20467726;28;20042;-50
2021/07/16 11:35:51;;;;;;;8.25;1.50;;;21.10;99.90;;;;;;20469696;28;20043;-50
2021/07/16 11:45:53;;;;;;;4.18;1.20;;;21.40;99.90;;;;;;20469217;28;20065;-50
2021/07/16 11:55:55;;;;;;;5.13;1.17;;;21.50;99.90;;;;;;20466256;28;20074;-50
2021/07/16 12:05:57;;;;;;;6.50;1.75;;;21.50;99.90;;;;;;20465543;28;20141;-50
2021/07/16 12:16:17;;;;;;;6.88;1.40;;;21.30;99.90;;;;;;20465830;28;20043;-50
2021/07/16 12:26:23;;;;;;;11.35;1.73;;;21.60;99.90;;;;;;20465329;28;20109;-50
2021/07/16 12:36:33;;;;;;;5.68;1.98;;;21.90;99.90;;;;;;20462708;28;20662;-50
2021/07/16 12:46:34;;;;;;;4.35;1.77;;;21.70;99.90;;;;;;20463179;28;20043;-50
2021/07/16 12:56:36;;;;;;;5.15;1.70;;;22.30;99.90;;;;;;20463251;28;20055;-50
2021/07/16 13:06:37;;;;;;;4.80;1.52;;;22.20;99.90;;;;;;20460233;28;20039;-50
2021/07/16 13:16:38;;;;;;;10.27;1.40;;;22.10;99.90;;;;;;20464162;28;20039;-50
2021/07/16 13:26:39;;;;;;;3.35;1.80;;;22.00;99.90;;;;;;20465293;28;20153;-50
2021/07/16 13:36:41;;;;;;;8.32;2.13;;;22.90;99.90;;;;;;20475082;28;20043;-50
2021/07/16 13:46:42;;;;;;;6.50;1.58;;;23.20;99.90;;;;;;20471091;28;20040;-50
2021/07/16 13:56:43;;;;;;;6.35;1.75;;;22.60;99.90;;;;;;20476803;28;20040;-50
2021/07/16 14:06:45;;;;;;;3.35;1.60;;;22.10;99.90;;;;;;20473728;28;20113;-50
2021/07/16 14:16:47;;;;;;;3.17;1.40;;;22.20;99.90;;;;;;20474483;28;20059;-50
2021/07/16 14:26:48;;;;;;;15.65;2.67;;;22.30;99.90;;;;;;20466143;28;20035;-50
2021/07/16 14:36:49;;;;;;;6.03;2.15;;;22.00;99.90;;;;;;20467269;28;20792;-50
2021/07/16 14:46:50;;;;;;;3.88;1.48;;;22.10;99.90;;;;;;20468207;28;20043;-50
2021/07/16 14:56:52;;;;;;;3.28;1.33;;;22.10;99.90;;;;;;20450546;28;20046;-50
2021/07/16 15:06:53;;;;;;;7.82;1.77;;;22.10;99.90;;;;;;20459278;28;20071;-50
2021/07/16 15:16:54;;;;;;;7.70;2.42;;;22.00;99.90;;;;;;20456007;28;20066;-50
2021/07/16 15:26:56;;;;;;;7.78;1.50;;;21.60;99.90;;;;;;20449565;28;20122;-50
2021/07/16 15:36:57;;;;;;;9.80;2.35;;;21.50;99.90;;;;;;20444648;28;20070;-50
2021/07/16 15:46:59;;;;;;;6.85;2.15;;;21.70;99.90;;;;;;20447224;28;20047;-50
2021/07/16 15:57:00;;;;;;;11.43;1.88;;;21.40;99.90;;;;;;20446977;28;20051;-50
2021/07/16 16:07:02;;;;;;;5.35;2.38;;;21.40;99.90;;;;;;20442388;28;20329;-50
2021/07/16 16:17:07;;;;;;;4.97;2.55;;;21.30;99.90;;;;;;20460993;28;20490;-50
2021/07/16 16:27:09;;;;;;;3.60;1.75;;;21.20;99.90;;;;;;20456456;28;20069;-50
2021/07/16 16:37:10;;;;;;;7.00;1.98;;;20.80;99.90;;;;;;20445662;28;20082;-50
2021/07/16 16:47:12;;;;;;;9.45;2.28;;;20.60;99.90;;;;;;20454979;28;20149;-50
2021/07/16 16:57:13;;;;;;;10.57;3.58;;;20.70;99.90;;;;;;20458480;28;20054;-50
2021/07/16 17:07:14;;;;;;;4.90;2.13;;;20.50;99.90;;;;;;20473985;28;20082;-50
2021/07/16 17:17:15;;;;;;;5.70;1.83;;;20.70;99.90;;;;;;20487604;28;20069;-50
2021/07/16 17:27:17;;;;;;;9.25;3.00;;;20.30;99.90;;;;;;20488582;28;20599;-50
2021/07/16 17:37:18;;;;;;;8.00;2.30;;;20.10;99.90;;;;;;20486047;28;20105;-49
2021/07/16 17:47:20;;;;;;;7.35;1.60;;;19.90;99.90;;;;;;20487932;28;20399;-49
2021/07/16 17:57:21;;;;;;;8.55;1.50;;;19.80;99.90;;;;;;20487408;28;20434;-50
2021/07/16 18:07:22;;;;;;;9.10;2.45;;;19.80;99.90;;;;;;20484880;28;20133;-50
2021/07/16 18:17:23;;;;;;;6.93;2.17;;;19.80;99.90;;;;;;20482055;28;20047;-50
2021/07/16 18:27:26;;;;;;;5.32;1.83;;;19.60;99.90;;;;;;20475243;28;20439;-50
2021/07/16 18:37:27;;;;;;;6.75;2.42;;;19.40;99.90;;;;;;20469414;28;20404;-49
2021/07/16 18:47:28;;;;;;;5.80;2.10;;;19.50;99.90;;;;;;20473125;28;20414;-50
2021/07/16 18:57:29;;;;;;;4.75;2.42;;;19.30;99.90;;;;;;20474664;28;20069;-49
2021/07/16 19:07:31;;;;;;;8.48;2.22;;;19.20;99.90;;;;;;20471899;28;20470;-50
2021/07/16 19:17:33;;;;;;;7.10;2.25;;;19.10;99.90;;;;;;20472077;28;20403;-50
2021/07/16 19:27:34;;;;;;;5.53;2.10;;;19.00;99.90;;;;;;20470769;28;20035;-49
2021/07/16 19:37:35;;;;;;;8.80;2.20;;;18.80;99.90;;;;;;20469182;28;20524;-49
2021/07/16 19:47:37;;;;;;;3.50;2.08;;;18.70;99.90;;;;;;20467121;28;20136;-49
2021/07/16 19:57:40;;;;;;;6.70;2.35;;;18.60;99.90;;;;;;20469018;28;20438;-49
2021/07/16 20:07:41;;;;;;;9.77;2.05;;;18.70;99.90;;;;;;20466032;28;20395;-50
2021/07/16 20:17:43;;;;;;;4.43;1.75;;;18.70;99.90;;;;;;20466713;28;20039;-50
2021/07/16 20:27:46;;;;;;;9.13;1.65;;;18.50;99.90;;;;;;20458044;28;20545;-49
2021/07/16 20:37:47;;;;;;;7.55;2.88;;;18.50;99.90;;;;;;20459647;28;20576;-50
2021/07/16 20:47:48;;;;;;;4.38;1.83;;;18.40;99.90;;;;;;20446788;28;20474;-49
2021/07/16 20:57:49;;;;;;;3.70;1.58;;;18.50;99.90;;;;;;20443604;28;20095;-50
2021/07/16 21:07:51;;;;;;;5.53;2.03;;;18.30;99.90;;;;;;20437425;28;20043;-49
2021/07/16 21:17:52;;;;;;;10.88;2.42;;;18.40;99.90;;;;;;20448242;28;20217;-50
2021/07/16 21:27:53;;;;;;;7.55;2.15;;;18.40;99.90;;;;;;20436852;28;20408;-50
2021/07/16 21:37:54;;;;;;;3.42;1.60;;;18.20;99.90;;;;;;20442632;28;20066;-49
2021/07/16 21:47:56;;;;;;;6.47;2.42;;;18.10;99.90;;;;;;20452355;28;20118;-50
2021/07/16 21:57:57;;;;;;;4.97;2.58;;;18.10;99.90;;;;;;20457369;28;20062;-50
2021/07/16 22:07:58;;;;;;;3.65;1.40;;;18.10;99.90;;;;;;20451782;28;20149;-49
2021/07/16 22:17:59;;;;;;;4.97;1.77;;;17.90;99.90;;;;;;20464571;28;20094;-49
2021/07/16 22:28:02;;;;;;;4.47;1.15;;;17.90;99.90;;;;;;20457521;28;20431;-49
2021/07/16 22:38:03;;;;;;;9.85;1.80;;;17.90;99.90;;;;;;20450543;28;20519;-49
2021/07/16 22:48:06;;;;;;;5.50;1.77;;;17.90;99.90;;;;;;20459557;28;20368;-49
2021/07/16 22:58:09;;;;;;;4.03;1.73;;;17.80;99.90;;;;;;20452614;28;20072;-50
2021/07/16 23:08:10;;;;;;;8.60;1.67;;;17.80;99.90;;;;;;20440002;28;20039;-49
2021/07/16 23:18:11;;;;;;;8.07;2.50;;;17.90;99.90;;;;;;20439152;28;20126;-50
2021/07/16 23:28:13;;;;;;;5.40;1.75;;;18.00;99.90;;;;;;20448420;28;20038;-49
2021/07/16 23:38:14;;;;;;;3.85;2.00;;;17.90;99.90;;;;;;20457139;28;20810;-49
2021/07/16 23:48:15;;;;;;;10.20;1.70;;;17.80;99.90;;;;;;20451896;28;20989;-49
2021/07/16 23:58:16;;;;;;;5.35;2.13;;;17.80;99.90;;;;;;20447698;28;20820;-49
